createdAt,value
2019-01-21T00:02:05.393Z,99840.70
2019-01-21T00:04:37.297Z,99845.07
2019-01-21T00:07:08.210Z,99847.98
2019-01-21T00:09:39.218Z,99844.38
2019-01-21T00:12:11.298Z,99841.31
2019-01-21T00:14:42.156Z,99841.11
2019-01-21T00:17:14.325Z,99847.23
2019-01-21T00:19:48.107Z,99846.84
2019-01-21T00:22:20.348Z,99841.97
2019-01-21T00:24:51.235Z,99840.96
2019-01-21T00:27:22.155Z,99844.52
2019-01-21T00:29:53.069Z,99852.28
2019-01-21T00:32:24.121Z,99846.66
2019-01-21T00:34:55.125Z,99845.52
2019-01-21T00:37:26.218Z,99864.19
2019-01-21T00:39:57.073Z,99849.17
2019-01-21T00:42:27.977Z,99856.79
2019-01-21T00:44:58.437Z,99866.36
2019-01-21T00:47:29.922Z,99865.22
2019-01-21T00:50:00.852Z,99865.58
2019-01-21T00:52:31.437Z,99875.71
2019-01-21T00:55:01.943Z,99880.04
2019-01-21T00:57:33.318Z,99877.48
2019-01-21T01:00:06.132Z,99882.28
2019-01-21T01:02:38.366Z,99886.77
2019-01-21T01:05:11.403Z,99886.17
2019-01-21T01:07:43.402Z,99887.30
2019-01-21T01:10:14.589Z,99888.33
2019-01-21T01:12:46.838Z,99892.88
2019-01-21T01:15:19.532Z,99893.78
2019-01-21T01:17:50.457Z,99899.97
2019-01-21T01:20:22.379Z,99898.68
2019-01-21T01:22:55.515Z,99899.48
2019-01-21T01:25:26.447Z,99902.31
2019-01-21T01:27:57.502Z,99903.98
2019-01-21T01:30:30.629Z,99902.98
2019-01-21T01:33:01.416Z,99906.99
2019-01-21T01:35:32.589Z,99904.67
2019-01-21T01:38:04.390Z,99898.41
2019-01-21T01:40:35.107Z,99906.66
2019-01-21T01:43:05.836Z,99906.89
2019-01-21T01:45:36.628Z,99908.53
2019-01-21T01:48:07.897Z,99903.16
2019-01-21T01:50:38.552Z,99904.67
2019-01-21T01:53:09.541Z,99903.89
2019-01-21T01:55:41.760Z,99900.18
2019-01-21T01:58:14.720Z,99899.47
2019-01-21T02:00:45.633Z,99896.77
2019-01-21T02:03:16.584Z,99894.60
2019-01-21T02:05:49.735Z,99898.14
2019-01-21T02:08:22.752Z,99900.99
2019-01-21T02:10:54.919Z,99892.58
2019-01-21T02:13:26.802Z,99897.50
2019-01-21T02:15:59.697Z,99904.50
2019-01-21T02:18:31.653Z,99901.99
2019-01-21T02:21:03.351Z,99896.77
2019-01-21T02:23:39.560Z,99898.27
2019-01-21T02:26:19.816Z,99896.72
2019-01-21T02:29:20.743Z,99902.64
2019-01-21T02:32:38.092Z,99903.40
2019-01-21T02:36:02.168Z,99901.14
2019-01-21T02:39:05.628Z,99904.88
2019-01-21T02:42:05.621Z,99904.50
2019-01-21T02:45:14.655Z,99901.31
2019-01-21T02:48:04.684Z,99896.44
2019-01-21T02:51:08.269Z,99897.06
2019-01-21T02:54:07.988Z,99905.21
2019-01-21T02:57:32.820Z,99903.00
2019-01-21T03:00:33.821Z,99903.00
2019-01-21T03:03:34.170Z,99899.45
2019-01-21T03:06:51.307Z,99899.29
2019-01-21T03:09:50.425Z,99899.72
2019-01-21T03:12:39.958Z,99898.50
2019-01-21T03:15:44.821Z,99892.59
2019-01-21T03:18:48.611Z,99894.28
2019-01-21T03:21:59.846Z,99898.16
2019-01-21T03:24:55.397Z,99900.75
2019-01-21T03:28:01.720Z,99903.65
2019-01-21T03:31:21.560Z,99909.95
2019-01-21T03:34:34.829Z,99900.55
2019-01-21T03:37:43.603Z,99901.14
2019-01-21T03:40:59.273Z,99899.33
2019-01-21T03:44:27.155Z,99898.20
2019-01-21T03:47:33.748Z,99897.30
2019-01-21T03:50:38.196Z,99903.34
2019-01-21T03:53:43.534Z,99893.58
2019-01-21T03:56:38.858Z,99890.77
2019-01-21T04:00:17.728Z,99895.83
2019-01-21T04:03:24.675Z,99899.76
2019-01-21T04:06:24.695Z,99897.78
2019-01-21T04:09:09.835Z,99905.03
2019-01-21T04:12:22.345Z,99906.50
2019-01-21T04:15:56.226Z,99906.41
2019-01-21T04:18:45.933Z,99908.27
2019-01-21T04:21:38.142Z,99911.45
2019-01-21T04:24:48.365Z,99914.60
2019-01-21T04:28:06.896Z,99913.96
2019-01-21T04:31:08.446Z,99918.63
2019-01-21T04:34:17.622Z,99923.37
2019-01-21T04:37:50.198Z,99926.28
2019-01-21T04:40:37.794Z,99923.06
2019-01-21T04:44:19.074Z,99919.43
2019-01-21T04:47:39.373Z,99928.24
2019-01-21T04:51:12.198Z,99930.36
2019-01-21T04:54:38.819Z,99926.94
2019-01-21T04:58:04.509Z,99933.65
2019-01-21T05:01:14.488Z,99927.88
2019-01-21T05:04:30.320Z,99928.19
2019-01-21T05:07:49.927Z,99925.69
2019-01-21T05:10:56.803Z,99925.94
2019-01-21T05:13:57.763Z,99928.31
2019-01-21T05:17:14.421Z,99932.72
2019-01-21T05:20:20.189Z,99936.16
2019-01-21T05:23:20.067Z,99931.36
2019-01-21T05:26:23.307Z,99941.69
2019-01-21T05:29:19.742Z,99941.67
2019-01-21T05:32:20.113Z,99946.11
2019-01-21T05:35:33.784Z,99942.78
2019-01-21T05:38:36.363Z,99945.49
2019-01-21T05:41:14.272Z,99947.55
2019-01-21T05:44:16.606Z,99948.68
2019-01-21T05:47:37.414Z,99946.95
2019-01-21T05:50:48.255Z,99951.09
2019-01-21T05:53:42.799Z,99953.82
2019-01-21T05:56:53.038Z,99955.78
2019-01-21T06:00:13.573Z,99952.94
2019-01-21T06:03:24.582Z,99960.70
2019-01-21T06:06:36.920Z,99971.91
2019-01-21T06:10:11.448Z,99969.22
2019-01-21T06:13:27.710Z,99976.20
2019-01-21T06:16:46.234Z,99984.48
2019-01-21T06:19:26.227Z,99980.47
2019-01-21T06:22:36.582Z,99978.95
2019-01-21T06:25:51.929Z,99990.93
2019-01-21T06:28:59.478Z,99993.58
2019-01-21T06:32:08.107Z,99986.16
2019-01-21T06:35:31.170Z,99989.92
2019-01-21T06:38:37.395Z,99993.27
2019-01-21T06:41:37.613Z,99988.43
2019-01-21T06:44:50.288Z,99992.74
2019-01-21T06:47:52.714Z,99993.08
2019-01-21T06:50:59.113Z,99995.89
2019-01-21T06:53:56.481Z,99991.60
2019-01-21T06:57:13.409Z,99998.47
2019-01-21T07:00:05.654Z,99995.27
2019-01-21T07:03:29.058Z,100001.17
2019-01-21T07:06:43.684Z,99999.69
2019-01-21T07:10:04.661Z,100000.95
2019-01-21T07:13:34.540Z,100014.16
2019-01-21T07:16:36.863Z,100007.70
2019-01-21T07:19:39.775Z,100013.66
2019-01-21T07:22:38.733Z,100013.44
2019-01-21T07:25:50.339Z,100015.69
2019-01-21T07:28:58.644Z,100023.87
2019-01-21T07:31:46.117Z,100021.75
2019-01-21T07:34:56.366Z,100024.78
2019-01-21T07:38:25.141Z,100023.61
2019-01-21T07:41:47.179Z,100030.43
2019-01-21T07:45:07.452Z,100035.33
2019-01-21T07:48:30.448Z,100035.94
2019-01-21T07:51:51.142Z,100035.53
2019-01-21T07:55:01.680Z,100038.13
2019-01-21T07:58:04.728Z,100042.23
2019-01-21T08:00:54.690Z,100039.08
2019-01-21T08:04:15.954Z,100043.73
2019-01-21T08:07:27.668Z,100047.43
2019-01-21T08:10:25.903Z,100046.63
2019-01-21T08:13:27.961Z,100044.94
2019-01-21T08:16:45.032Z,100039.61
2019-01-21T08:19:51.565Z,100042.83
2019-01-21T08:23:10.484Z,100044.14
2019-01-21T08:26:20.357Z,100045.60
2019-01-21T08:29:30.377Z,100036.19
2019-01-21T08:32:48.447Z,100030.53
2019-01-21T08:35:49.555Z,100037.40
2019-01-21T08:38:59.089Z,100036.66
2019-01-21T08:42:11.767Z,100039.43
2019-01-21T08:45:33.136Z,100041.25
2019-01-21T08:48:42.704Z,100040.90
2019-01-21T08:51:51.488Z,100039.47
2019-01-21T08:55:03.842Z,100044.13
2019-01-21T08:58:08.047Z,100045.66
2019-01-21T09:01:12.636Z,100050.45
2019-01-21T09:04:04.011Z,100051.47
2019-01-21T09:07:00.726Z,100050.59
2019-01-21T09:09:47.565Z,100056.59
2019-01-21T09:13:02.642Z,100055.73
2019-01-21T09:16:06.742Z,100050.05
2019-01-21T09:19:02.054Z,100060.41
2019-01-21T09:21:47.649Z,100064.69
2019-01-21T09:24:36.396Z,100061.86
2019-01-21T09:27:39.809Z,100062.35
2019-01-21T09:30:53.780Z,100072.22
2019-01-21T09:34:08.157Z,100057.28
2019-01-21T09:37:22.053Z,100060.97
2019-01-21T09:40:54.395Z,100059.30
2019-01-21T09:44:13.644Z,100047.36
2019-01-21T09:46:47.661Z,100048.81
2019-01-21T09:49:18.013Z,100044.31
2019-01-21T09:52:02.664Z,100045.41
2019-01-21T09:54:33.755Z,100044.44
2019-01-21T09:57:10.263Z,100041.45
2019-01-21T09:59:41.765Z,100040.09
2019-01-21T10:02:12.744Z,100037.14
2019-01-21T10:04:55.000Z,100035.30
2019-01-21T10:07:31.880Z,100032.05
2019-01-21T10:10:46.488Z,100032.50
2019-01-21T10:13:55.979Z,100034.16
2019-01-21T10:16:58.531Z,100036.58
2019-01-21T10:20:08.828Z,100030.38
2019-01-21T10:23:05.718Z,100031.33
2019-01-21T10:25:59.080Z,100030.08
2019-01-21T10:29:05.034Z,100021.51
2019-01-21T10:32:24.398Z,100015.66
2019-01-21T10:35:40.462Z,100008.48
2019-01-21T10:38:46.316Z,100013.09
2019-01-21T10:41:42.678Z,100008.12
2019-01-21T10:44:29.501Z,99997.30
2019-01-21T10:47:42.318Z,100000.36
2019-01-21T10:50:25.087Z,99997.70
2019-01-21T10:53:32.424Z,99989.27
2019-01-21T10:56:44.007Z,99988.23
2019-01-21T10:59:49.899Z,99985.33
2019-01-21T11:03:06.149Z,99983.89
2019-01-21T11:05:52.028Z,99980.89
2019-01-21T11:09:00.732Z,99983.07
2019-01-21T11:12:16.762Z,99983.95
2019-01-21T11:15:11.686Z,99977.05
2019-01-21T11:17:54.575Z,99970.56
2019-01-21T11:20:55.573Z,99973.31
2019-01-21T11:23:57.630Z,99973.51
2019-01-21T11:27:10.973Z,99964.91
2019-01-21T11:30:17.441Z,99960.37
2019-01-21T11:33:25.325Z,99955.34
2019-01-21T11:36:54.516Z,99951.46
2019-01-21T11:40:09.575Z,99946.70
2019-01-21T11:43:23.265Z,99943.06
2019-01-21T11:46:27.863Z,99943.58
2019-01-21T11:49:35.088Z,99939.67
2019-01-21T11:52:41.898Z,99936.31
2019-01-21T11:55:50.246Z,99935.13
2019-01-21T11:58:56.493Z,99933.11
2019-01-21T12:02:00.080Z,99938.64
2019-01-21T12:05:31.889Z,99934.09
2019-01-21T12:08:39.089Z,99935.24
2019-01-21T12:11:59.466Z,99929.55
2019-01-21T12:15:37.991Z,99925.17
2019-01-21T12:18:37.099Z,99918.99
2019-01-21T12:22:01.108Z,99916.64
2019-01-21T12:24:45.310Z,99912.22
2019-01-21T12:28:07.620Z,99918.20
2019-01-21T12:31:33.388Z,99909.77
2019-01-21T12:34:34.822Z,99909.67
2019-01-21T12:37:41.119Z,99911.14
2019-01-21T12:40:46.348Z,99903.47
2019-01-21T12:43:44.434Z,99898.37
2019-01-21T12:46:43.966Z,99893.58
2019-01-21T12:49:59.535Z,99894.77
2019-01-21T12:52:56.209Z,99886.63
2019-01-21T12:55:39.701Z,99886.91
2019-01-21T12:59:04.337Z,99883.12
2019-01-21T13:02:08.239Z,99877.61
2019-01-21T13:05:21.472Z,99873.27
2019-01-21T13:08:25.286Z,99869.41
2019-01-21T13:11:17.437Z,99870.13
2019-01-21T13:14:39.993Z,99867.91
2019-01-21T13:17:32.002Z,99867.05
2019-01-21T13:20:22.330Z,99864.34
2019-01-21T13:23:07.222Z,99860.09
2019-01-21T13:26:28.856Z,99856.55
2019-01-21T13:30:02.407Z,99861.20
2019-01-21T13:33:08.600Z,99863.06
2019-01-21T13:36:03.642Z,99869.22
2019-01-21T13:39:08.486Z,99865.33
2019-01-21T13:42:03.991Z,99867.50
2019-01-21T13:45:37.926Z,99868.32
2019-01-21T13:48:42.426Z,99865.23
2019-01-21T13:51:49.371Z,99859.20
2019-01-21T13:54:52.166Z,99856.30
2019-01-21T13:58:13.630Z,99847.33
2019-01-21T14:01:12.076Z,99846.59
2019-01-21T14:04:39.461Z,99842.73
2019-01-21T14:08:10.566Z,99841.12
2019-01-21T14:11:19.743Z,99845.97
2019-01-21T14:14:13.857Z,99844.27
2019-01-21T14:17:40.055Z,99845.59
2019-01-21T14:20:19.315Z,99843.47
2019-01-21T14:23:12.221Z,99844.55
2019-01-21T14:26:37.451Z,99841.23
2019-01-21T14:29:34.032Z,99837.56
2019-01-21T14:32:37.091Z,99835.22
2019-01-21T14:35:55.158Z,99836.30
2019-01-21T14:38:43.792Z,99829.27
2019-01-21T14:41:56.704Z,99829.27
2019-01-21T14:45:09.815Z,99827.67
2019-01-21T14:48:34.816Z,99827.67
2019-01-21T14:51:39.035Z,99829.77
2019-01-21T14:54:27.993Z,99831.22
2019-01-21T14:57:10.958Z,99835.28
2019-01-21T15:00:21.369Z,99828.83
2019-01-21T15:03:31.080Z,99832.50
2019-01-21T15:06:17.117Z,99832.50
2019-01-21T15:09:18.793Z,99820.78
2019-01-21T15:12:19.984Z,99821.65
2019-01-21T15:15:41.726Z,99822.00
2019-01-21T15:18:53.246Z,99816.83
2019-01-21T15:22:19.197Z,99815.80
2019-01-21T15:25:33.091Z,99819.98
2019-01-21T15:29:15.916Z,99818.71
2019-01-21T15:32:14.744Z,99815.20
2019-01-21T15:35:24.293Z,99818.69
2019-01-21T15:38:48.857Z,99815.94
2019-01-21T15:41:47.381Z,99815.02
2019-01-21T15:44:45.757Z,99819.58
2019-01-21T15:47:40.878Z,99818.91
2019-01-21T15:50:37.088Z,99823.58
2019-01-21T15:54:07.731Z,99824.04
2019-01-21T15:57:20.199Z,99822.05
2019-01-21T16:00:24.246Z,99829.30
2019-01-21T16:03:41.377Z,99834.04
2019-01-21T16:07:04.246Z,99837.09
2019-01-21T16:10:34.180Z,99828.65
2019-01-21T16:13:23.179Z,99826.13
2019-01-21T16:16:35.444Z,99821.18
2019-01-21T16:19:12.571Z,99818.73
2019-01-21T16:22:25.322Z,99823.41
2019-01-21T16:25:40.393Z,99819.34
2019-01-21T16:28:53.319Z,99817.36
2019-01-21T16:32:03.396Z,99823.25
2019-01-21T16:35:01.707Z,99826.18
2019-01-21T16:37:52.388Z,99823.42
2019-01-21T16:41:19.760Z,99817.72
2019-01-21T16:43:52.828Z,99827.26
2019-01-21T16:46:25.523Z,99820.22
2019-01-21T16:48:56.577Z,99818.79
2019-01-21T16:51:27.645Z,99820.30
2019-01-21T16:53:59.140Z,99823.53
2019-01-21T16:56:29.829Z,99819.17
2019-01-21T16:59:00.997Z,99822.41
2019-01-21T17:01:31.956Z,99818.26
2019-01-21T17:04:06.000Z,99817.92
2019-01-21T17:06:36.908Z,99820.17
2019-01-21T17:09:11.412Z,99821.39
2019-01-21T17:11:42.139Z,99817.77
2019-01-21T17:14:13.321Z,99816.46
2019-01-21T17:16:45.880Z,99822.14
2019-01-21T17:19:16.857Z,99822.02
2019-01-21T17:21:49.687Z,99821.75
2019-01-21T17:24:21.967Z,99817.39
2019-01-21T17:26:52.924Z,99815.22
2019-01-21T17:29:23.695Z,99812.86
2019-01-21T17:31:54.911Z,99813.50
2019-01-21T17:34:25.954Z,99812.45
2019-01-21T17:36:56.854Z,99809.38
2019-01-21T17:39:29.972Z,99812.32
2019-01-21T17:42:02.185Z,99815.55
2019-01-21T17:44:33.041Z,99817.39
2019-01-21T17:47:03.726Z,99816.61
2019-01-21T17:49:36.462Z,99817.25
2019-01-21T17:52:08.214Z,99813.23
2019-01-21T17:54:39.779Z,99811.59
2019-01-21T17:57:13.024Z,99809.61
2019-01-21T17:59:44.083Z,99811.00
2019-01-21T18:02:15.106Z,99809.70
2019-01-21T18:04:45.993Z,99803.81
2019-01-21T18:07:19.640Z,99804.54
2019-01-21T18:09:51.069Z,99807.62
2019-01-21T18:12:22.129Z,99809.66
2019-01-21T18:14:53.607Z,99807.34
2019-01-21T18:17:27.248Z,99802.30
2019-01-21T18:19:58.247Z,99796.82
2019-01-21T18:22:29.130Z,99798.41
2019-01-21T18:25:00.184Z,99799.95
2019-01-21T18:27:31.399Z,99799.19
2019-01-21T18:30:02.950Z,99798.32
2019-01-21T18:32:36.239Z,99800.30
2019-01-21T18:35:09.316Z,99795.16
2019-01-21T18:37:41.542Z,99800.09
2019-01-21T18:40:14.635Z,99803.77
2019-01-21T18:42:47.304Z,99801.07
2019-01-21T18:45:27.773Z,99800.30
2019-01-21T18:48:00.201Z,99800.40
2019-01-21T18:50:31.516Z,99802.37
2019-01-21T18:53:03.577Z,99805.40
2019-01-21T18:55:36.391Z,99809.42
2019-01-21T18:58:09.323Z,99808.18
2019-01-21T19:00:41.394Z,99811.92
2019-01-21T19:03:13.053Z,99809.48
2019-01-21T19:05:46.252Z,99810.63
2019-01-21T19:08:17.325Z,99809.52
2019-01-21T19:10:49.091Z,99802.59
2019-01-21T19:13:22.600Z,99803.32
2019-01-21T19:15:53.428Z,99804.15
2019-01-21T19:18:24.326Z,99797.76
2019-01-21T19:20:55.433Z,99792.70
2019-01-21T19:23:26.750Z,99788.43
2019-01-21T19:25:57.427Z,99793.05
2019-01-21T19:28:28.520Z,99791.12
2019-01-21T19:30:59.370Z,99792.23
2019-01-21T19:33:30.476Z,99794.30
2019-01-21T19:36:01.355Z,99793.88
2019-01-21T19:38:32.412Z,99797.76
2019-01-21T19:41:03.116Z,99801.03
2019-01-21T19:43:34.705Z,99800.70
2019-01-21T19:46:05.908Z,99797.76
2019-01-21T19:48:36.559Z,99795.45
2019-01-21T19:51:08.808Z,99795.70
2019-01-21T19:53:41.435Z,99796.27
2019-01-21T19:56:12.690Z,99792.00
2019-01-21T19:58:43.585Z,99798.20
2019-01-21T20:01:14.580Z,99798.13
2019-01-21T20:03:45.591Z,99801.88
2019-01-21T20:06:16.666Z,99797.54
2019-01-21T20:08:47.527Z,99800.84
2019-01-21T20:11:19.867Z,99796.77
2019-01-21T20:13:52.492Z,99795.04
2019-01-21T20:16:25.409Z,99799.73
2019-01-21T20:18:57.470Z,99797.81
2019-01-21T20:21:28.528Z,99799.88
2019-01-21T20:23:59.238Z,99797.51
2019-01-21T20:26:30.527Z,99792.54
2019-01-21T20:29:03.081Z,99795.95
2019-01-21T20:31:36.239Z,99796.59
2019-01-21T20:34:08.875Z,99792.77
2019-01-21T20:36:39.652Z,99799.45
2019-01-21T20:39:10.786Z,99790.37
2019-01-21T20:41:41.617Z,99794.69
2019-01-21T20:44:12.582Z,99791.84
2019-01-21T20:46:43.501Z,99785.38
2019-01-21T20:49:14.660Z,99786.03
2019-01-21T20:51:45.713Z,99782.44
2019-01-21T20:54:16.719Z,99783.84
2019-01-21T20:56:47.692Z,99773.11
2019-01-21T20:59:18.826Z,99776.77
2019-01-21T21:01:49.601Z,99782.29
2019-01-21T21:04:21.493Z,99779.17
2019-01-21T21:06:51.922Z,99775.22
2019-01-21T21:09:22.393Z,99784.68
2019-01-21T21:11:52.753Z,99780.26
2019-01-21T21:14:23.780Z,99784.64
2019-01-21T21:16:54.632Z,99783.49
2019-01-21T21:19:25.722Z,99783.27
2019-01-21T21:21:56.650Z,99779.75
2019-01-21T21:24:27.637Z,99779.60
2019-01-21T21:26:58.722Z,99775.91
2019-01-21T21:29:29.777Z,99776.39
2019-01-21T21:32:00.629Z,99774.80
2019-01-21T21:34:31.150Z,99769.52
2019-01-21T21:37:02.967Z,99767.26
2019-01-21T21:39:34.318Z,99767.30
2019-01-21T21:42:05.267Z,99773.22
2019-01-21T21:44:35.742Z,99759.09
2019-01-21T21:47:06.779Z,99769.09
2019-01-21T21:49:38.205Z,99769.67
2019-01-21T21:52:09.120Z,99762.46
2019-01-21T21:54:39.702Z,99761.53
2019-01-21T21:57:11.141Z,99761.09
2019-01-21T21:59:42.128Z,99762.44
2019-01-21T22:02:12.799Z,99763.20
2019-01-21T22:04:44.136Z,99765.94
2019-01-21T22:07:15.035Z,99763.98
2019-01-21T22:09:45.846Z,99763.50
2019-01-21T22:12:17.038Z,99762.84
2019-01-21T22:14:47.906Z,99760.28
2019-01-21T22:17:20.924Z,99763.55
2019-01-21T22:19:52.860Z,99762.35
2019-01-21T22:22:23.853Z,99762.98
2019-01-21T22:24:54.884Z,99766.88
2019-01-21T22:27:26.185Z,99764.52
2019-01-21T22:29:57.044Z,99765.95
2019-01-21T22:32:28.055Z,99767.93
2019-01-21T22:34:59.022Z,99768.94
2019-01-21T22:37:30.163Z,99768.84
2019-01-21T22:40:01.012Z,99771.34
2019-01-21T22:42:31.408Z,99765.77
2019-01-21T22:45:03.117Z,99765.39
2019-01-21T22:47:34.050Z,99764.80
2019-01-21T22:50:07.330Z,99755.19
2019-01-21T22:52:42.064Z,99754.05
2019-01-21T22:55:14.263Z,99753.09
2019-01-21T22:57:47.192Z,99746.61
2019-01-21T23:00:51.070Z,99746.36
2019-01-21T23:03:22.149Z,99742.11
2019-01-21T23:05:52.963Z,99746.42
2019-01-21T23:08:24.037Z,99744.59
2019-01-21T23:10:54.904Z,99749.16
2019-01-21T23:13:26.069Z,99751.27
2019-01-21T23:15:57.025Z,99747.97
2019-01-21T23:18:28.266Z,99751.42
2019-01-21T23:20:59.025Z,99745.82
2019-01-21T23:23:29.945Z,99742.68
2019-01-21T23:26:00.843Z,99742.95
2019-01-21T23:28:31.404Z,99743.48
2019-01-21T23:31:02.345Z,99744.91
2019-01-21T23:33:33.220Z,99747.07
2019-01-21T23:36:03.712Z,99748.33
2019-01-21T23:38:35.410Z,99747.63
2019-01-21T23:41:06.329Z,99745.84
2019-01-21T23:43:37.385Z,99738.96
2019-01-21T23:46:08.492Z,99734.83
2019-01-21T23:48:39.435Z,99735.59
2019-01-21T23:51:10.524Z,99727.96
2019-01-21T23:53:41.312Z,99726.72
2019-01-21T23:56:12.331Z,99723.88
2019-01-21T23:58:42.704Z,99718.44
